sensor_id;sensor_type;location;lat;lon;timestamp;P1;durP1;ratioP1;P2;durP2;ratioP2
43152;SDS011;28756;49.064;9.290;2023-03-01T00:01:47;18.52;;;12.07;;
43152;SDS011;28756;49.064;9.290;2023-03-01T00:04:12;17.08;;;11.38;;
43152;SDS011;28756;49.064;9.290;2023-03-01T00:06:38;20.80;;;12.70;;
43152;SDS011;28756;49.064;9.290;2023-03-01T00:09:04;21.15;;;13.30;;
43152;SDS011;28756;49.064;9.290;2023-03-01T00:11:30;21.48;;;13.13;;
43152;SDS011;28756;49.064;9.290;2023-03-01T00:13:59;19.67;;;12.88;;
43152;SDS011;28756;49.064;9.290;2023-03-01T00:16:27;20.48;;;13.70;;
43152;SDS011;28756;49.064;9.290;2023-03-01T00:18:57;18.92;;;12.50;;
43152;SDS011;28756;49.064;9.290;2023-03-01T00:21:22;20.00;;;13.20;;
43152;SDS011;28756;49.064;9.290;2023-03-01T00:23:49;19.98;;;12.43;;
43152;SDS011;28756;49.064;9.290;2023-03-01T00:26:16;19.13;;;12.73;;
43152;SDS011;28756;49.064;9.290;2023-03-01T00:28:43;16.83;;;11.93;;
43152;SDS011;28756;49.064;9.290;2023-03-01T00:31:11;19.70;;;12.65;;
43152;SDS011;28756;49.064;9.290;2023-03-01T00:33:40;23.42;;;12.77;;
43152;SDS011;28756;49.064;9.290;2023-03-01T00:36:06;19.13;;;12.30;;
43152;SDS011;28756;49.064;9.290;2023-03-01T00:38:37;17.70;;;12.02;;
43152;SDS011;28756;49.064;9.290;2023-03-01T00:41:05;17.98;;;11.82;;
43152;SDS011;28756;49.064;9.290;2023-03-01T00:43:33;17.73;;;12.02;;
43152;SDS011;28756;49.064;9.290;2023-03-01T00:46:02;18.05;;;11.93;;
43152;SDS011;28756;49.064;9.290;2023-03-01T00:48:29;21.20;;;12.77;;
43152;SDS011;28756;49.064;9.290;2023-03-01T00:50:55;18.25;;;12.27;;
43152;SDS011;28756;49.064;9.290;2023-03-01T00:53:21;24.25;;;13.35;;
43152;SDS011;28756;49.064;9.290;2023-03-01T00:55:46;19.70;;;12.70;;
43152;SDS011;28756;49.064;9.290;2023-03-01T00:58:12;21.95;;;13.43;;
43152;SDS011;28756;49.064;9.290;2023-03-01T01:00:38;25.48;;;13.55;;
43152;SDS011;28756;49.064;9.290;2023-03-01T01:03:03;20.85;;;12.50;;
43152;SDS011;28756;49.064;9.290;2023-03-01T01:05:29;19.10;;;12.43;;
43152;SDS011;28756;49.064;9.290;2023-03-01T01:07:55;21.15;;;13.68;;
43152;SDS011;28756;49.064;9.290;2023-03-01T01:10:21;21.13;;;12.73;;
43152;SDS011;28756;49.064;9.290;2023-03-01T01:12:47;22.63;;;13.27;;
43152;SDS011;28756;49.064;9.290;2023-03-01T01:15:13;19.15;;;13.25;;
43152;SDS011;28756;49.064;9.290;2023-03-01T01:17:41;21.08;;;13.98;;
43152;SDS011;28756;49.064;9.290;2023-03-01T01:20:07;22.98;;;13.38;;
43152;SDS011;28756;49.064;9.290;2023-03-01T01:22:34;18.63;;;12.68;;
43152;SDS011;28756;49.064;9.290;2023-03-01T01:24:59;23.10;;;12.70;;
43152;SDS011;28756;49.064;9.290;2023-03-01T01:27:25;18.40;;;12.25;;
43152;SDS011;28756;49.064;9.290;2023-03-01T01:29:52;18.58;;;12.75;;
43152;SDS011;28756;49.064;9.290;2023-03-01T01:32:18;19.05;;;12.60;;
43152;SDS011;28756;49.064;9.290;2023-03-01T01:34:44;20.08;;;13.35;;
43152;SDS011;28756;49.064;9.290;2023-03-01T01:37:09;20.67;;;13.55;;
43152;SDS011;28756;49.064;9.290;2023-03-01T01:39:35;21.17;;;12.85;;
43152;SDS011;28756;49.064;9.290;2023-03-01T01:42:01;19.25;;;13.02;;
43152;SDS011;28756;49.064;9.290;2023-03-01T01:44:27;19.13;;;12.93;;
43152;SDS011;28756;49.064;9.290;2023-03-01T01:46:55;21.80;;;13.52;;
43152;SDS011;28756;49.064;9.290;2023-03-01T01:52:22;19.95;;;12.80;;
43152;SDS011;28756;49.064;9.290;2023-03-01T01:55:04;19.45;;;11.98;;
43152;SDS011;28756;49.064;9.290;2023-03-01T01:57:37;19.08;;;12.10;;
43152;SDS011;28756;49.064;9.290;2023-03-01T02:00:09;19.08;;;11.80;;
43152;SDS011;28756;49.064;9.290;2023-03-01T02:02:43;20.08;;;12.98;;
43152;SDS011;28756;49.064;9.290;2023-03-01T02:05:16;19.60;;;13.45;;
43152;SDS011;28756;49.064;9.290;2023-03-01T02:08:01;21.42;;;12.85;;
43152;SDS011;28756;49.064;9.290;2023-03-01T02:10:27;21.77;;;12.73;;
43152;SDS011;28756;49.064;9.290;2023-03-01T02:12:54;18.08;;;12.52;;
43152;SDS011;28756;49.064;9.290;2023-03-01T02:15:21;18.75;;;12.45;;
43152;SDS011;28756;49.064;9.290;2023-03-01T02:17:49;17.98;;;12.60;;
43152;SDS011;28756;49.064;9.290;2023-03-01T02:20:21;21.02;;;13.00;;
43152;SDS011;28756;49.064;9.290;2023-03-01T02:22:54;19.17;;;12.57;;
43152;SDS011;28756;49.064;9.290;2023-03-01T02:25:26;19.10;;;12.35;;
43152;SDS011;28756;49.064;9.290;2023-03-01T02:30:41;22.50;;;13.55;;
43152;SDS011;28756;49.064;9.290;2023-03-01T02:33:31;21.30;;;13.20;;
43152;SDS011;28756;49.064;9.290;2023-03-01T02:36:01;18.75;;;11.65;;
43152;SDS011;28756;49.064;9.290;2023-03-01T02:38:31;21.98;;;12.50;;
43152;SDS011;28756;49.064;9.290;2023-03-01T02:40:57;19.73;;;12.82;;
43152;SDS011;28756;49.064;9.290;2023-03-01T02:43:26;19.77;;;12.80;;
43152;SDS011;28756;49.064;9.290;2023-03-01T02:45:57;19.05;;;11.90;;
43152;SDS011;28756;49.064;9.290;2023-03-01T02:48:38;19.48;;;13.25;;
43152;SDS011;28756;49.064;9.290;2023-03-01T02:51:22;19.67;;;13.00;;
43152;SDS011;28756;49.064;9.290;2023-03-01T02:54:21;22.25;;;13.30;;
43152;SDS011;28756;49.064;9.290;2023-03-01T02:56:58;20.55;;;13.90;;
43152;SDS011;28756;49.064;9.290;2023-03-01T02:59:26;21.35;;;13.30;;
43152;SDS011;28756;49.064;9.290;2023-03-01T03:01:56;21.30;;;13.85;;
43152;SDS011;28756;49.064;9.290;2023-03-01T03:04:22;23.35;;;14.20;;
43152;SDS011;28756;49.064;9.290;2023-03-01T03:06:49;19.20;;;13.02;;
43152;SDS011;28756;49.064;9.290;2023-03-01T03:09:16;18.05;;;11.40;;
43152;SDS011;28756;49.064;9.290;2023-03-01T03:11:43;18.58;;;12.52;;
43152;SDS011;28756;49.064;9.290;2023-03-01T03:14:10;18.92;;;11.50;;
43152;SDS011;28756;49.064;9.290;2023-03-01T03:16:41;17.58;;;12.43;;
43152;SDS011;28756;49.064;9.290;2023-03-01T03:19:09;19.25;;;12.77;;
43152;SDS011;28756;49.064;9.290;2023-03-01T03:21:36;20.05;;;12.63;;
43152;SDS011;28756;49.064;9.290;2023-03-01T03:24:02;20.35;;;13.05;;
43152;SDS011;28756;49.064;9.290;2023-03-01T03:26:29;21.30;;;13.40;;
43152;SDS011;28756;49.064;9.290;2023-03-01T03:28:55;21.70;;;13.63;;
43152;SDS011;28756;49.064;9.290;2023-03-01T03:31:21;21.63;;;13.73;;
43152;SDS011;28756;49.064;9.290;2023-03-01T03:33:46;21.00;;;13.80;;
43152;SDS011;28756;49.064;9.290;2023-03-01T03:36:19;20.60;;;12.55;;
43152;SDS011;28756;49.064;9.290;2023-03-01T03:38:47;20.73;;;13.18;;
43152;SDS011;28756;49.064;9.290;2023-03-01T03:41:14;19.77;;;13.35;;
43152;SDS011;28756;49.064;9.290;2023-03-01T03:43:41;20.40;;;13.30;;
43152;SDS011;28756;49.064;9.290;2023-03-01T03:46:08;18.63;;;12.50;;
43152;SDS011;28756;49.064;9.290;2023-03-01T03:48:42;22.73;;;14.70;;
43152;SDS011;28756;49.064;9.290;2023-03-01T03:51:11;19.83;;;13.02;;
43152;SDS011;28756;49.064;9.290;2023-03-01T03:53:38;19.70;;;13.10;;
43152;SDS011;28756;49.064;9.290;2023-03-01T03:56:05;18.33;;;12.32;;
43152;SDS011;28756;49.064;9.290;2023-03-01T03:58:31;20.38;;;13.13;;
43152;SDS011;28756;49.064;9.290;2023-03-01T04:00:57;21.42;;;13.63;;
43152;SDS011;28756;49.064;9.290;2023-03-01T04:03:23;21.75;;;14.05;;
43152;SDS011;28756;49.064;9.290;2023-03-01T04:05:51;20.35;;;13.57;;
43152;SDS011;28756;49.064;9.290;2023-03-01T04:08:18;21.52;;;13.75;;
43152;SDS011;28756;49.064;9.290;2023-03-01T04:10:46;20.00;;;12.73;;
43152;SDS011;28756;49.064;9.290;2023-03-01T04:13:21;21.40;;;13.55;;
43152;SDS011;28756;49.064;9.290;2023-03-01T04:15:50;19.60;;;13.05;;
43152;SDS011;28756;49.064;9.290;2023-03-01T04:18:18;22.38;;;14.30;;
43152;SDS011;28756;49.064;9.290;2023-03-01T04:20:47;22.70;;;13.85;;
43152;SDS011;28756;49.064;9.290;2023-03-01T04:23:15;22.40;;;13.95;;
43152;SDS011;28756;49.064;9.290;2023-03-01T04:25:52;19.75;;;13.48;;
43152;SDS011;28756;49.064;9.290;2023-03-01T04:28:24;19.98;;;13.63;;
43152;SDS011;28756;49.064;9.290;2023-03-01T04:30:52;24.23;;;13.60;;
43152;SDS011;28756;49.064;9.290;2023-03-01T04:33:19;23.70;;;14.57;;
43152;SDS011;28756;49.064;9.290;2023-03-01T04:35:46;23.58;;;14.25;;
43152;SDS011;28756;49.064;9.290;2023-03-01T04:38:14;19.63;;;13.10;;
43152;SDS011;28756;49.064;9.290;2023-03-01T04:40:41;21.38;;;14.57;;
43152;SDS011;28756;49.064;9.290;2023-03-01T04:43:08;23.20;;;13.85;;
43152;SDS011;28756;49.064;9.290;2023-03-01T04:45:38;22.02;;;14.20;;
43152;SDS011;28756;49.064;9.290;2023-03-01T04:48:03;22.77;;;14.48;;
43152;SDS011;28756;49.064;9.290;2023-03-01T04:50:29;23.25;;;14.35;;
43152;SDS011;28756;49.064;9.290;2023-03-01T04:52:55;21.77;;;13.90;;
43152;SDS011;28756;49.064;9.290;2023-03-01T04:55:25;21.33;;;13.88;;
43152;SDS011;28756;49.064;9.290;2023-03-01T04:57:52;22.30;;;14.32;;
43152;SDS011;28756;49.064;9.290;2023-03-01T05:00:19;22.88;;;13.75;;
43152;SDS011;28756;49.064;9.290;2023-03-01T05:02:55;23.38;;;14.55;;
43152;SDS011;28756;49.064;9.290;2023-03-01T05:05:26;23.80;;;14.10;;
43152;SDS011;28756;49.064;9.290;2023-03-01T05:07:57;21.80;;;13.50;;
43152;SDS011;28756;49.064;9.290;2023-03-01T05:10:27;22.27;;;13.95;;
43152;SDS011;28756;49.064;9.290;2023-03-01T05:12:55;22.30;;;13.57;;
43152;SDS011;28756;49.064;9.290;2023-03-01T05:15:25;21.05;;;13.50;;
43152;SDS011;28756;49.064;9.290;2023-03-01T05:17:55;24.58;;;15.43;;
43152;SDS011;28756;49.064;9.290;2023-03-01T05:20:24;23.33;;;15.20;;
43152;SDS011;28756;49.064;9.290;2023-03-01T05:22:52;23.02;;;14.75;;
43152;SDS011;28756;49.064;9.290;2023-03-01T05:25:22;24.45;;;15.32;;
43152;SDS011;28756;49.064;9.290;2023-03-01T05:27:48;24.73;;;15.05;;
43152;SDS011;28756;49.064;9.290;2023-03-01T05:30:14;24.45;;;15.35;;
43152;SDS011;28756;49.064;9.290;2023-03-01T05:32:41;24.77;;;15.50;;
43152;SDS011;28756;49.064;9.290;2023-03-01T05:35:09;22.23;;;14.90;;
43152;SDS011;28756;49.064;9.290;2023-03-01T05:37:38;26.75;;;15.93;;
43152;SDS011;28756;49.064;9.290;2023-03-01T05:40:13;23.65;;;15.70;;
43152;SDS011;28756;49.064;9.290;2023-03-01T05:42:48;24.20;;;15.52;;
43152;SDS011;28756;49.064;9.290;2023-03-01T05:45:17;23.08;;;14.98;;
43152;SDS011;28756;49.064;9.290;2023-03-01T05:47:44;25.90;;;15.48;;
43152;SDS011;28756;49.064;9.290;2023-03-01T05:50:16;22.50;;;14.60;;
43152;SDS011;28756;49.064;9.290;2023-03-01T05:52:52;28.27;;;15.65;;
43152;SDS011;28756;49.064;9.290;2023-03-01T05:55:28;25.00;;;15.10;;
43152;SDS011;28756;49.064;9.290;2023-03-01T05:57:57;27.15;;;16.67;;
43152;SDS011;28756;49.064;9.290;2023-03-01T06:00:29;26.08;;;16.58;;
43152;SDS011;28756;49.064;9.290;2023-03-01T06:02:55;27.33;;;17.05;;
43152;SDS011;28756;49.064;9.290;2023-03-01T06:05:22;24.92;;;15.73;;
43152;SDS011;28756;49.064;9.290;2023-03-01T06:07:49;25.25;;;15.98;;
43152;SDS011;28756;49.064;9.290;2023-03-01T06:10:15;25.23;;;15.98;;
43152;SDS011;28756;49.064;9.290;2023-03-01T06:12:42;29.98;;;16.30;;
43152;SDS011;28756;49.064;9.290;2023-03-01T06:15:09;27.52;;;16.73;;
43152;SDS011;28756;49.064;9.290;2023-03-01T06:17:38;25.45;;;16.52;;
43152;SDS011;28756;49.064;9.290;2023-03-01T06:20:07;31.65;;;18.02;;
43152;SDS011;28756;49.064;9.290;2023-03-01T06:22:52;27.20;;;16.92;;
43152;SDS011;28756;49.064;9.290;2023-03-01T06:25:20;27.15;;;16.30;;
43152;SDS011;28756;49.064;9.290;2023-03-01T06:27:49;28.67;;;16.85;;
43152;SDS011;28756;49.064;9.290;2023-03-01T06:30:17;28.15;;;17.35;;
43152;SDS011;28756;49.064;9.290;2023-03-01T06:32:45;29.50;;;17.58;;
43152;SDS011;28756;49.064;9.290;2023-03-01T06:35:11;28.13;;;17.77;;
43152;SDS011;28756;49.064;9.290;2023-03-01T06:37:42;26.52;;;17.08;;
43152;SDS011;28756;49.064;9.290;2023-03-01T06:40:08;29.85;;;17.30;;
43152;SDS011;28756;49.064;9.290;2023-03-01T06:42:37;26.10;;;17.10;;
43152;SDS011;28756;49.064;9.290;2023-03-01T06:45:04;26.70;;;16.75;;
43152;SDS011;28756;49.064;9.290;2023-03-01T06:47:32;27.42;;;16.50;;
43152;SDS011;28756;49.064;9.290;2023-03-01T06:49:59;28.40;;;16.55;;
43152;SDS011;28756;49.064;9.290;2023-03-01T06:52:26;29.73;;;17.80;;
43152;SDS011;28756;49.064;9.290;2023-03-01T06:54:51;27.02;;;17.27;;
43152;SDS011;28756;49.064;9.290;2023-03-01T06:57:17;26.98;;;17.17;;
43152;SDS011;28756;49.064;9.290;2023-03-01T06:59:43;25.05;;;16.63;;
43152;SDS011;28756;49.064;9.290;2023-03-01T07:02:10;24.40;;;15.65;;
43152;SDS011;28756;49.064;9.290;2023-03-01T07:04:37;28.17;;;16.95;;
43152;SDS011;28756;49.064;9.290;2023-03-01T07:07:03;28.10;;;17.73;;
43152;SDS011;28756;49.064;9.290;2023-03-01T07:09:29;28.25;;;17.20;;
43152;SDS011;28756;49.064;9.290;2023-03-01T07:11:55;25.98;;;16.73;;
43152;SDS011;28756;49.064;9.290;2023-03-01T07:14:21;28.77;;;17.73;;
43152;SDS011;28756;49.064;9.290;2023-03-01T07:16:49;29.88;;;16.98;;
43152;SDS011;28756;49.064;9.290;2023-03-01T07:19:15;26.60;;;16.92;;
43152;SDS011;28756;49.064;9.290;2023-03-01T07:21:40;27.63;;;16.65;;
43152;SDS011;28756;49.064;9.290;2023-03-01T07:24:07;25.45;;;16.15;;
43152;SDS011;28756;49.064;9.290;2023-03-01T07:26:33;27.73;;;16.80;;
43152;SDS011;28756;49.064;9.290;2023-03-01T07:29:00;26.50;;;16.88;;
43152;SDS011;28756;49.064;9.290;2023-03-01T07:31:28;29.92;;;17.88;;
43152;SDS011;28756;49.064;9.290;2023-03-01T07:33:54;28.55;;;17.75;;
43152;SDS011;28756;49.064;9.290;2023-03-01T07:36:20;26.48;;;16.45;;
43152;SDS011;28756;49.064;9.290;2023-03-01T07:38:46;30.15;;;16.48;;
43152;SDS011;28756;49.064;9.290;2023-03-01T07:41:12;28.80;;;16.90;;
43152;SDS011;28756;49.064;9.290;2023-03-01T07:43:38;26.23;;;16.83;;
43152;SDS011;28756;49.064;9.290;2023-03-01T07:46:04;27.42;;;17.00;;
43152;SDS011;28756;49.064;9.290;2023-03-01T07:48:30;28.23;;;16.92;;
43152;SDS011;28756;49.064;9.290;2023-03-01T07:50:58;29.80;;;17.60;;
43152;SDS011;28756;49.064;9.290;2023-03-01T07:53:28;26.48;;;16.73;;
43152;SDS011;28756;49.064;9.290;2023-03-01T07:56:06;24.95;;;15.82;;
43152;SDS011;28756;49.064;9.290;2023-03-01T07:58:35;27.05;;;17.30;;
43152;SDS011;28756;49.064;9.290;2023-03-01T08:01:06;27.30;;;17.77;;
43152;SDS011;28756;49.064;9.290;2023-03-01T08:03:34;27.50;;;16.90;;
43152;SDS011;28756;49.064;9.290;2023-03-01T08:06:02;28.00;;;16.42;;
43152;SDS011;28756;49.064;9.290;2023-03-01T08:08:30;26.55;;;17.50;;
43152;SDS011;28756;49.064;9.290;2023-03-01T08:10:57;28.13;;;17.38;;
43152;SDS011;28756;49.064;9.290;2023-03-01T08:13:24;26.42;;;16.73;;
43152;SDS011;28756;49.064;9.290;2023-03-01T08:15:51;28.15;;;17.38;;
43152;SDS011;28756;49.064;9.290;2023-03-01T08:18:17;28.33;;;17.58;;
43152;SDS011;28756;49.064;9.290;2023-03-01T08:20:44;25.48;;;16.20;;
43152;SDS011;28756;49.064;9.290;2023-03-01T08:23:10;26.27;;;17.25;;
43152;SDS011;28756;49.064;9.290;2023-03-01T08:25:36;27.80;;;17.23;;
43152;SDS011;28756;49.064;9.290;2023-03-01T08:28:02;29.50;;;17.95;;
43152;SDS011;28756;49.064;9.290;2023-03-01T08:30:28;24.83;;;15.70;;
43152;SDS011;28756;49.064;9.290;2023-03-01T08:32:54;27.48;;;17.63;;
43152;SDS011;28756;49.064;9.290;2023-03-01T08:35:20;32.63;;;17.02;;
43152;SDS011;28756;49.064;9.290;2023-03-01T08:37:46;26.60;;;17.63;;
43152;SDS011;28756;49.064;9.290;2023-03-01T08:40:12;26.77;;;16.77;;
43152;SDS011;28756;49.064;9.290;2023-03-01T08:42:39;23.25;;;15.70;;
43152;SDS011;28756;49.064;9.290;2023-03-01T08:45:06;25.30;;;16.27;;
43152;SDS011;28756;49.064;9.290;2023-03-01T08:47:32;27.15;;;17.25;;
43152;SDS011;28756;49.064;9.290;2023-03-01T08:49:59;26.13;;;17.65;;
43152;SDS011;28756;49.064;9.290;2023-03-01T08:52:25;28.05;;;16.67;;
43152;SDS011;28756;49.064;9.290;2023-03-01T08:54:51;26.92;;;17.75;;
43152;SDS011;28756;49.064;9.290;2023-03-01T08:57:17;27.30;;;16.75;;
43152;SDS011;28756;49.064;9.290;2023-03-01T08:59:43;27.45;;;17.67;;
43152;SDS011;28756;49.064;9.290;2023-03-01T09:02:13;27.00;;;17.20;;
43152;SDS011;28756;49.064;9.290;2023-03-01T09:04:41;29.95;;;17.45;;
43152;SDS011;28756;49.064;9.290;2023-03-01T09:07:08;26.98;;;16.98;;
43152;SDS011;28756;49.064;9.290;2023-03-01T09:09:35;25.58;;;16.67;;
43152;SDS011;28756;49.064;9.290;2023-03-01T09:12:02;30.00;;;17.15;;
43152;SDS011;28756;49.064;9.290;2023-03-01T09:14:28;25.08;;;16.40;;
43152;SDS011;28756;49.064;9.290;2023-03-01T09:16:55;24.30;;;16.92;;
43152;SDS011;28756;49.064;9.290;2023-03-01T09:19:21;24.52;;;16.45;;
43152;SDS011;28756;49.064;9.290;2023-03-01T09:21:46;24.77;;;17.08;;
43152;SDS011;28756;49.064;9.290;2023-03-01T09:24:19;26.33;;;17.08;;
43152;SDS011;28756;49.064;9.290;2023-03-01T09:26:46;25.52;;;16.88;;
43152;SDS011;28756;49.064;9.290;2023-03-01T09:29:13;30.13;;;17.40;;
43152;SDS011;28756;49.064;9.290;2023-03-01T09:31:40;25.90;;;16.52;;
43152;SDS011;28756;49.064;9.290;2023-03-01T09:34:06;29.00;;;17.30;;
43152;SDS011;28756;49.064;9.290;2023-03-01T09:36:33;26.35;;;16.77;;
43152;SDS011;28756;49.064;9.290;2023-03-01T09:38:59;28.65;;;17.42;;
43152;SDS011;28756;49.064;9.290;2023-03-01T09:44:31;26.85;;;16.50;;
43152;SDS011;28756;49.064;9.290;2023-03-01T09:47:20;27.80;;;16.77;;
43152;SDS011;28756;49.064;9.290;2023-03-01T09:52:43;27.55;;;17.50;;
43152;SDS011;28756;49.064;9.290;2023-03-01T09:55:20;27.92;;;17.60;;
43152;SDS011;28756;49.064;9.290;2023-03-01T10:00:49;25.40;;;16.70;;
43152;SDS011;28756;49.064;9.290;2023-03-01T10:03:30;24.83;;;16.52;;
43152;SDS011;28756;49.064;9.290;2023-03-01T10:06:06;24.98;;;16.33;;
43152;SDS011;28756;49.064;9.290;2023-03-01T10:08:50;25.77;;;17.60;;
43152;SDS011;28756;49.064;9.290;2023-03-01T10:11:24;24.00;;;16.98;;
43152;SDS011;28756;49.064;9.290;2023-03-01T10:16:26;25.30;;;16.35;;
43152;SDS011;28756;49.064;9.290;2023-03-01T10:19:36;28.67;;;16.67;;
43152;SDS011;28756;49.064;9.290;2023-03-01T10:24:50;27.35;;;17.50;;
43152;SDS011;28756;49.064;9.290;2023-03-01T10:27:25;25.27;;;16.38;;
43152;SDS011;28756;49.064;9.290;2023-03-01T10:30:05;22.35;;;16.50;;
43152;SDS011;28756;49.064;9.290;2023-03-01T10:33:04;21.92;;;16.02;;
43152;SDS011;28756;49.064;9.290;2023-03-01T10:35:48;22.05;;;15.93;;
43152;SDS011;28756;49.064;9.290;2023-03-01T10:38:15;22.55;;;15.90;;
43152;SDS011;28756;49.064;9.290;2023-03-01T10:43:22;21.98;;;16.20;;
43152;SDS011;28756;49.064;9.290;2023-03-01T10:45:55;19.52;;;15.40;;
43152;SDS011;28756;49.064;9.290;2023-03-01T10:48:22;20.80;;;15.10;;
43152;SDS011;28756;49.064;9.290;2023-03-01T10:51:14;18.48;;;14.43;;
43152;SDS011;28756;49.064;9.290;2023-03-01T10:53:48;20.65;;;14.73;;
43152;SDS011;28756;49.064;9.290;2023-03-01T10:56:15;19.80;;;13.90;;
43152;SDS011;28756;49.064;9.290;2023-03-01T10:58:56;19.58;;;14.35;;
43152;SDS011;28756;49.064;9.290;2023-03-01T11:01:34;19.35;;;14.48;;
43152;SDS011;28756;49.064;9.290;2023-03-01T11:06:33;17.52;;;13.48;;
43152;SDS011;28756;49.064;9.290;2023-03-01T11:09:18;19.73;;;14.77;;
43152;SDS011;28756;49.064;9.290;2023-03-01T11:11:53;17.88;;;13.88;;
43152;SDS011;28756;49.064;9.290;2023-03-01T11:14:22;19.48;;;14.10;;
43152;SDS011;28756;49.064;9.290;2023-03-01T11:19:37;18.88;;;13.38;;
43152;SDS011;28756;49.064;9.290;2023-03-01T11:22:04;16.33;;;13.18;;
43152;SDS011;28756;49.064;9.290;2023-03-01T11:27:16;19.45;;;14.20;;
43152;SDS011;28756;49.064;9.290;2023-03-01T11:29:54;18.38;;;13.43;;
43152;SDS011;28756;49.064;9.290;2023-03-01T11:32:25;15.88;;;12.60;;
43152;SDS011;28756;49.064;9.290;2023-03-01T11:35:10;17.75;;;13.25;;
43152;SDS011;28756;49.064;9.290;2023-03-01T11:40:55;18.85;;;14.13;;
43152;SDS011;28756;49.064;9.290;2023-03-01T11:58:01;20.13;;;14.50;;
43152;SDS011;28756;49.064;9.290;2023-03-01T12:01:02;18.75;;;13.80;;
43152;SDS011;28756;49.064;9.290;2023-03-01T12:27:33;20.25;;;15.18;;
43152;SDS011;28756;49.064;9.290;2023-03-01T12:33:49;19.95;;;14.05;;
43152;SDS011;28756;49.064;9.290;2023-03-01T12:45:26;23.60;;;15.48;;
43152;SDS011;28756;49.064;9.290;2023-03-01T12:51:24;20.38;;;14.45;;
43152;SDS011;28756;49.064;9.290;2023-03-01T12:53:54;21.90;;;14.38;;
43152;SDS011;28756;49.064;9.290;2023-03-01T12:56:26;20.90;;;15.10;;
43152;SDS011;28756;49.064;9.290;2023-03-01T13:13:19;20.80;;;15.45;;
43152;SDS011;28756;49.064;9.290;2023-03-01T13:15:47;22.20;;;15.60;;
43152;SDS011;28756;49.064;9.290;2023-03-01T13:26:07;23.42;;;15.55;;
43152;SDS011;28756;49.064;9.290;2023-03-01T13:31:55;21.95;;;16.08;;
43152;SDS011;28756;49.064;9.290;2023-03-01T13:33:57;20.30;;;14.65;;
43152;SDS011;28756;49.064;9.290;2023-03-01T13:39:00;18.65;;;14.10;;
43152;SDS011;28756;49.064;9.290;2023-03-01T13:41:52;21.52;;;15.95;;
43152;SDS011;28756;49.064;9.290;2023-03-01T13:46:50;21.60;;;14.90;;
43152;SDS011;28756;49.064;9.290;2023-03-01T13:49:45;24.83;;;15.48;;
43152;SDS011;28756;49.064;9.290;2023-03-01T13:57:40;20.48;;;15.23;;
43152;SDS011;28756;49.064;9.290;2023-03-01T14:03:02;21.90;;;15.43;;
43152;SDS011;28756;49.064;9.290;2023-03-01T14:05:39;22.15;;;15.75;;
43152;SDS011;28756;49.064;9.290;2023-03-01T14:08:22;23.70;;;15.77;;
43152;SDS011;28756;49.064;9.290;2023-03-01T14:20:00;21.42;;;14.98;;
43152;SDS011;28756;49.064;9.290;2023-03-01T14:23:02;19.98;;;15.05;;
43152;SDS011;28756;49.064;9.290;2023-03-01T14:25:46;21.80;;;15.85;;
43152;SDS011;28756;49.064;9.290;2023-03-01T14:28:18;20.73;;;14.98;;
43152;SDS011;28756;49.064;9.290;2023-03-01T14:30:56;19.63;;;14.15;;
43152;SDS011;28756;49.064;9.290;2023-03-01T14:33:28;21.95;;;14.90;;
43152;SDS011;28756;49.064;9.290;2023-03-01T14:38:46;21.15;;;15.02;;
43152;SDS011;28756;49.064;9.290;2023-03-01T14:41:16;22.73;;;14.73;;
43152;SDS011;28756;49.064;9.290;2023-03-01T14:43:47;22.83;;;15.32;;
43152;SDS011;28756;49.064;9.290;2023-03-01T14:46:30;22.27;;;14.65;;
43152;SDS011;28756;49.064;9.290;2023-03-01T14:49:22;21.20;;;15.30;;
43152;SDS011;28756;49.064;9.290;2023-03-01T14:51:53;23.10;;;15.32;;
43152;SDS011;28756;49.064;9.290;2023-03-01T14:54:52;20.38;;;14.45;;
43152;SDS011;28756;49.064;9.290;2023-03-01T14:57:26;22.52;;;15.50;;
43152;SDS011;28756;49.064;9.290;2023-03-01T14:59:53;21.73;;;14.85;;
43152;SDS011;28756;49.064;9.290;2023-03-01T15:02:23;22.15;;;15.30;;
43152;SDS011;28756;49.064;9.290;2023-03-01T15:04:51;21.25;;;14.65;;
43152;SDS011;28756;49.064;9.290;2023-03-01T15:07:26;18.30;;;13.85;;
43152;SDS011;28756;49.064;9.290;2023-03-01T15:10:30;21.70;;;15.13;;
43152;SDS011;28756;49.064;9.290;2023-03-01T15:13:19;20.40;;;14.65;;
43152;SDS011;28756;49.064;9.290;2023-03-01T15:15:48;20.98;;;13.90;;
43152;SDS011;28756;49.064;9.290;2023-03-01T15:18:20;21.05;;;14.38;;
43152;SDS011;28756;49.064;9.290;2023-03-01T15:20:51;20.02;;;14.25;;
43152;SDS011;28756;49.064;9.290;2023-03-01T15:25:55;19.73;;;13.77;;
43152;SDS011;28756;49.064;9.290;2023-03-01T15:28:26;19.10;;;14.18;;
43152;SDS011;28756;49.064;9.290;2023-03-01T15:33:48;18.58;;;12.90;;
43152;SDS011;28756;49.064;9.290;2023-03-01T15:39:05;21.60;;;14.05;;
43152;SDS011;28756;49.064;9.290;2023-03-01T15:47:43;20.33;;;13.10;;
43152;SDS011;28756;49.064;9.290;2023-03-01T15:50:16;18.23;;;13.00;;
43152;SDS011;28756;49.064;9.290;2023-03-01T15:52:47;20.10;;;13.82;;
43152;SDS011;28756;49.064;9.290;2023-03-01T15:55:17;20.52;;;14.40;;
43152;SDS011;28756;49.064;9.290;2023-03-01T15:57:49;22.42;;;14.18;;
43152;SDS011;28756;49.064;9.290;2023-03-01T16:00:23;23.60;;;14.32;;
43152;SDS011;28756;49.064;9.290;2023-03-01T16:02:49;18.63;;;13.73;;
43152;SDS011;28756;49.064;9.290;2023-03-01T16:07:47;19.33;;;13.88;;
43152;SDS011;28756;49.064;9.290;2023-03-01T16:10:14;20.52;;;14.43;;
43152;SDS011;28756;49.064;9.290;2023-03-01T16:12:40;21.90;;;13.93;;
43152;SDS011;28756;49.064;9.290;2023-03-01T16:17:58;21.30;;;14.05;;
43152;SDS011;28756;49.064;9.290;2023-03-01T16:20:24;21.13;;;14.55;;
43152;SDS011;28756;49.064;9.290;2023-03-01T16:22:51;19.77;;;13.50;;
43152;SDS011;28756;49.064;9.290;2023-03-01T16:25:18;22.38;;;14.65;;
43152;SDS011;28756;49.064;9.290;2023-03-01T16:27:46;20.13;;;13.55;;
43152;SDS011;28756;49.064;9.290;2023-03-01T16:30:15;21.77;;;13.85;;
43152;SDS011;28756;49.064;9.290;2023-03-01T16:32:44;19.50;;;12.82;;
43152;SDS011;28756;49.064;9.290;2023-03-01T16:35:12;19.75;;;13.38;;
43152;SDS011;28756;49.064;9.290;2023-03-01T16:37:41;19.45;;;12.90;;
43152;SDS011;28756;49.064;9.290;2023-03-01T16:40:16;21.08;;;13.52;;
43152;SDS011;28756;49.064;9.290;2023-03-01T16:42:48;21.00;;;14.10;;
43152;SDS011;28756;49.064;9.290;2023-03-01T16:45:15;20.73;;;14.02;;
43152;SDS011;28756;49.064;9.290;2023-03-01T16:47:41;19.17;;;13.00;;
43152;SDS011;28756;49.064;9.290;2023-03-01T16:50:07;20.67;;;13.80;;
43152;SDS011;28756;49.064;9.290;2023-03-01T16:52:34;18.63;;;13.25;;
43152;SDS011;28756;49.064;9.290;2023-03-01T16:55:00;19.80;;;13.68;;
43152;SDS011;28756;49.064;9.290;2023-03-01T16:57:28;17.55;;;11.82;;
43152;SDS011;28756;49.064;9.290;2023-03-01T16:59:55;20.05;;;12.48;;
43152;SDS011;28756;49.064;9.290;2023-03-01T17:02:20;19.00;;;11.98;;
43152;SDS011;28756;49.064;9.290;2023-03-01T17:04:53;19.52;;;12.57;;
43152;SDS011;28756;49.064;9.290;2023-03-01T17:07:20;18.75;;;12.43;;
43152;SDS011;28756;49.064;9.290;2023-03-01T17:09:47;18.20;;;13.02;;
43152;SDS011;28756;49.064;9.290;2023-03-01T17:12:13;20.33;;;12.65;;
43152;SDS011;28756;49.064;9.290;2023-03-01T17:14:40;19.55;;;12.73;;
43152;SDS011;28756;49.064;9.290;2023-03-01T17:17:07;18.95;;;12.38;;